createdAt,value
2019-05-02T00:00:37.469Z,74.00
2019-05-02T00:03:07.623Z,73.20
2019-05-02T00:05:37.923Z,72.90
2019-05-02T00:08:08.231Z,72.50
2019-05-02T00:10:38.883Z,72.30
2019-05-02T00:13:09.256Z,71.90
2019-05-02T00:15:40.838Z,72.30
2019-05-02T00:18:11.195Z,72.80
2019-05-02T00:20:41.204Z,72.30
2019-05-02T00:23:11.470Z,72.10
2019-05-02T00:25:41.829Z,72.60
2019-05-02T00:28:13.855Z,73.30
2019-05-02T00:30:43.880Z,73.70
2019-05-02T00:33:14.012Z,72.80
2019-05-02T00:35:46.203Z,72.90
2019-05-02T00:38:15.836Z,72.80
2019-05-02T00:40:46.512Z,73.20
2019-05-02T00:43:16.803Z,73.80
2019-05-02T00:45:48.004Z,74.50
2019-05-02T01:08:40.652Z,76.90
2019-05-02T01:11:10.878Z,76.00
2019-05-02T01:13:42.077Z,77.60
2019-05-02T01:16:15.165Z,78.10
2019-05-02T01:18:44.983Z,77.90
2019-05-02T01:21:15.004Z,77.00
2019-05-02T01:23:44.993Z,76.90
2019-05-02T01:26:15.145Z,76.80
2019-05-02T01:28:55.868Z,77.80
2019-05-02T01:31:27.694Z,78.90
2019-05-02T01:34:18.004Z,79.00
2019-05-02T01:37:00.004Z,79.20
2019-05-02T01:39:30.100Z,78.80
2019-05-02T01:42:04.009Z,78.30
2019-05-02T01:44:36.244Z,78.60
2019-05-02T01:47:03.875Z,79.20
2019-05-02T01:49:33.902Z,78.80
2019-05-02T01:52:03.998Z,78.30
2019-05-02T01:54:34.075Z,77.30
2019-05-02T01:57:08.715Z,77.40
2019-05-02T01:59:35.815Z,77.90
2019-05-02T02:02:06.196Z,78.50
2019-05-02T02:04:36.404Z,78.10
2019-05-02T02:07:06.547Z,77.30
2019-05-02T02:09:38.848Z,77.60
2019-05-02T02:12:09.757Z,78.00
2019-05-02T02:14:40.343Z,78.10
2019-05-02T02:17:15.325Z,78.80
2019-05-02T02:19:46.421Z,78.70
2019-05-02T02:22:18.175Z,78.90
2019-05-02T02:24:49.944Z,80.20
2019-05-02T02:27:24.507Z,79.30
2019-05-02T02:29:51.703Z,79.00
2019-05-02T02:32:27.142Z,78.60
2019-05-02T02:34:53.346Z,79.40
2019-05-02T02:37:23.300Z,79.30
2019-05-02T02:39:54.284Z,78.90
2019-05-02T02:42:31.458Z,79.70
2019-05-02T02:45:02.483Z,79.20
2019-05-02T02:47:32.560Z,79.00
2019-05-02T02:50:05.114Z,79.00
2019-05-02T02:52:37.990Z,79.20
2019-05-02T02:55:07.164Z,79.30
2019-05-02T02:57:37.139Z,80.30
2019-05-02T03:00:10.960Z,80.10
2019-05-02T03:02:48.061Z,80.10
2019-05-02T03:05:18.968Z,80.20
2019-05-02T03:07:43.572Z,80.30
2019-05-02T03:10:13.680Z,80.90
2019-05-02T03:12:45.401Z,80.00
2019-05-02T03:15:28.020Z,82.20
2019-05-02T03:17:59.980Z,87.70
2019-05-02T03:20:26.137Z,88.10
2019-05-02T03:22:56.209Z,82.20
2019-05-02T03:25:49.169Z,81.40
2019-05-02T03:27:58.212Z,80.80
2019-05-02T03:30:35.508Z,80.30
2019-05-02T03:33:09.806Z,79.70
2019-05-02T03:35:43.089Z,79.70
2019-05-02T03:38:04.463Z,80.30
2019-05-02T03:40:39.292Z,80.70
2019-05-02T03:43:06.368Z,80.70
2019-05-02T03:45:40.258Z,80.00
2019-05-02T03:48:09.745Z,80.30
2019-05-02T03:50:39.953Z,80.70
2019-05-02T03:53:10.529Z,81.40
2019-05-02T03:55:40.637Z,81.50
2019-05-02T03:58:14.285Z,81.50
2019-05-02T04:00:42.380Z,81.10
2019-05-02T04:03:12.450Z,81.50
2019-05-02T04:05:42.585Z,81.30
2019-05-02T04:08:19.940Z,80.80
2019-05-02T04:10:52.893Z,81.80
2019-05-02T04:13:18.908Z,82.10
2019-05-02T04:15:49.078Z,82.20
2019-05-02T04:18:20.480Z,81.90
2019-05-02T04:20:51.948Z,81.50
2019-05-02T04:23:27.631Z,81.00
2019-05-02T04:25:55.828Z,80.10
2019-05-02T04:28:25.936Z,80.80
2019-05-02T04:30:56.100Z,81.80
2019-05-02T04:33:29.241Z,81.40
2019-05-02T04:35:59.578Z,81.40
2019-05-02T04:38:39.150Z,80.90
2019-05-02T04:41:01.680Z,80.90
2019-05-02T04:43:31.865Z,81.20
2019-05-02T04:46:01.959Z,82.10
2019-05-02T04:48:34.815Z,81.40
2019-05-02T04:51:09.888Z,80.80
2019-05-02T04:53:40.953Z,80.60
2019-05-02T04:56:10.546Z,80.70
2019-05-02T04:58:40.582Z,80.80
2019-05-02T05:01:10.719Z,80.80
2019-05-02T05:03:42.372Z,80.70
2019-05-02T05:06:12.613Z,80.20
2019-05-02T05:08:42.603Z,79.80
2019-05-02T05:11:13.914Z,79.40
2019-05-02T05:13:44.364Z,79.40
2019-05-02T05:16:15.743Z,80.20
2019-05-02T05:18:49.402Z,80.70
2019-05-02T05:21:18.001Z,80.50
2019-05-02T05:23:59.490Z,80.90
2019-05-02T05:26:28.825Z,80.70
2019-05-02T05:28:58.875Z,80.90
2019-05-02T05:31:29.327Z,81.30
2019-05-02T05:34:00.407Z,82.00
2019-05-02T05:36:33.946Z,81.20
2019-05-02T05:39:07.603Z,80.30
2019-05-02T05:41:34.667Z,79.80
2019-05-02T05:44:04.850Z,79.20
2019-05-02T05:46:40.985Z,79.50
2019-05-02T05:49:10.584Z,79.80
2019-05-02T05:51:38.195Z,79.20
2019-05-02T05:54:08.321Z,79.00
2019-05-02T05:56:42.996Z,78.50
2019-05-02T05:59:10.088Z,78.30
2019-05-02T06:01:40.092Z,78.40
2019-05-02T06:04:13.786Z,78.20
2019-05-02T06:06:42.015Z,78.80
2019-05-02T06:09:13.847Z,78.20
2019-05-02T06:11:43.670Z,78.10
2019-05-02T06:14:13.675Z,77.70
2019-05-02T06:16:46.401Z,78.90
2019-05-02T06:19:17.826Z,77.70
2019-05-02T06:21:49.007Z,77.10
2019-05-02T06:24:19.037Z,76.60
2019-05-02T06:26:49.979Z,75.90
2019-05-02T06:29:21.085Z,75.40
2019-05-02T06:31:52.211Z,75.30
2019-05-02T06:34:22.316Z,76.40
2019-05-02T06:36:52.354Z,76.20
2019-05-02T06:39:22.305Z,75.40
2019-05-02T06:41:57.165Z,75.50
2019-05-02T06:44:25.400Z,75.90
2019-05-02T06:46:59.339Z,75.00
2019-05-02T06:49:27.424Z,75.40
2019-05-02T06:51:57.764Z,75.30
2019-05-02T06:54:28.732Z,75.60
2019-05-02T06:56:58.813Z,74.20
2019-05-02T06:59:29.036Z,74.30
2019-05-02T07:02:02.415Z,73.00
2019-05-02T07:04:33.090Z,72.70
2019-05-02T07:07:03.454Z,72.10
2019-05-02T07:09:40.929Z,71.20
2019-05-02T07:12:09.878Z,69.20
2019-05-02T07:14:39.236Z,68.60
2019-05-02T07:17:13.824Z,71.90
2019-05-02T07:19:46.631Z,67.50
2019-05-02T07:22:16.828Z,69.50
2019-05-02T07:24:46.913Z,68.70
2019-05-02T07:27:17.092Z,69.30
2019-05-02T07:29:57.664Z,69.70
2019-05-02T07:32:29.380Z,69.50
2019-05-02T07:35:00.970Z,70.10
2019-05-02T07:40:17.013Z,69.70
2019-05-02T07:42:45.554Z,68.60
2019-05-02T07:45:15.866Z,69.70
2019-05-02T07:47:45.959Z,69.60
2019-05-02T07:50:16.051Z,69.60
2019-05-02T07:52:46.172Z,69.70
2019-05-02T07:55:16.255Z,67.80
2019-05-02T07:57:46.360Z,68.10
2019-05-02T08:00:17.915Z,66.10
2019-05-02T08:02:48.101Z,66.20
2019-05-02T08:05:21.549Z,64.50
2019-05-02T08:07:53.344Z,64.50
2019-05-02T08:10:23.973Z,65.00
2019-05-02T08:12:53.903Z,64.30
2019-05-02T08:15:24.980Z,63.80
2019-05-02T08:17:55.226Z,63.00
2019-05-02T08:20:25.668Z,61.90
2019-05-02T08:22:55.540Z,62.70
2019-05-02T08:25:25.625Z,61.90
2019-05-02T08:28:04.582Z,63.90
2019-05-02T08:30:40.029Z,63.60
2019-05-02T08:33:09.798Z,62.10
2019-05-02T08:35:39.927Z,62.30
2019-05-02T08:38:12.514Z,63.30
2019-05-02T08:40:42.230Z,62.20
2019-05-02T08:43:13.566Z,62.80
2019-05-02T08:45:43.642Z,64.30
2019-05-02T08:48:13.828Z,64.20
2019-05-02T08:50:43.844Z,63.90
2019-05-02T08:53:14.395Z,61.40
2019-05-02T08:55:46.741Z,62.90
2019-05-02T08:58:16.785Z,62.90
2019-05-02T09:00:47.301Z,62.80
2019-05-02T09:03:17.653Z,61.80
2019-05-02T09:05:47.717Z,64.20
2019-05-02T09:08:17.829Z,64.60
2019-05-02T09:10:47.871Z,63.00
2019-05-02T09:13:26.415Z,62.50
2019-05-02T09:15:51.582Z,63.30
2019-05-02T09:18:25.398Z,63.10
2019-05-02T09:20:56.581Z,61.60
2019-05-02T09:23:27.429Z,63.40
2019-05-02T09:25:57.436Z,61.50
2019-05-02T09:28:27.555Z,60.40
2019-05-02T09:31:02.189Z,61.20
2019-05-02T09:33:29.199Z,60.50
2019-05-02T09:35:59.142Z,61.10
2019-05-02T09:38:29.203Z,61.70
2019-05-02T09:40:59.147Z,61.40
2019-05-02T09:43:33.516Z,62.40
2019-05-02T09:46:02.583Z,61.70
2019-05-02T09:48:33.559Z,61.60
2019-05-02T09:51:12.898Z,64.00
2019-05-02T09:53:36.471Z,62.70
2019-05-02T09:56:06.589Z,61.00
2019-05-02T09:58:36.671Z,59.80
2019-05-02T10:01:08.836Z,59.40
2019-05-02T10:03:38.788Z,60.00
2019-05-02T10:06:16.424Z,59.50
2019-05-02T10:08:43.546Z,60.60
2019-05-02T10:11:12.309Z,61.10
2019-05-02T10:13:42.488Z,59.60
2019-05-02T10:16:12.720Z,61.70
2019-05-02T10:18:43.172Z,62.60
2019-05-02T10:21:17.050Z,62.20
2019-05-02T10:23:45.124Z,64.70
2019-05-02T10:26:20.023Z,60.30
2019-05-02T10:28:50.572Z,57.50
2019-05-02T10:31:18.571Z,60.10
2019-05-02T10:33:48.565Z,61.20
2019-05-02T10:36:19.750Z,60.10
2019-05-02T10:38:54.681Z,60.20
2019-05-02T10:41:22.487Z,58.10
2019-05-02T10:43:55.980Z,57.30
2019-05-02T10:46:27.893Z,56.70
2019-05-02T10:48:59.043Z,55.00
2019-05-02T10:51:34.936Z,54.10
2019-05-02T10:54:06.155Z,55.40
2019-05-02T10:56:36.414Z,55.70
2019-05-02T10:59:06.535Z,54.50
2019-05-02T11:01:38.290Z,56.60
2019-05-02T11:04:09.983Z,55.00
2019-05-02T11:06:42.604Z,52.20
2019-05-02T11:09:12.140Z,52.00
2019-05-02T11:11:42.571Z,51.50
2019-05-02T11:14:26.024Z,51.90
2019-05-02T11:17:01.753Z,49.00
2019-05-02T11:19:44.892Z,50.80
2019-05-02T11:22:14.999Z,53.00
2019-05-02T11:24:45.072Z,52.60
2019-05-02T11:27:15.123Z,52.10
2019-05-02T11:29:45.073Z,56.30
2019-05-02T11:32:15.046Z,53.10
2019-05-02T11:34:45.175Z,52.10
2019-05-02T11:37:15.287Z,52.60
2019-05-02T11:39:51.317Z,51.20
2019-05-02T11:42:17.601Z,52.20
2019-05-02T11:44:48.512Z,51.90
2019-05-02T11:47:24.813Z,50.00
2019-05-02T11:49:53.917Z,52.70
2019-05-02T11:52:27.502Z,49.20
2019-05-02T11:54:54.552Z,50.50
2019-05-02T11:57:28.536Z,48.40
2019-05-02T11:59:59.499Z,48.20
2019-05-02T12:02:38.371Z,49.30
2019-05-02T12:05:13.104Z,50.00
2019-05-02T12:07:43.189Z,49.60
2019-05-02T12:10:13.415Z,51.50
2019-05-02T12:12:43.532Z,50.70
2019-05-02T12:15:13.715Z,49.70
2019-05-02T12:17:43.767Z,50.10
2019-05-02T12:20:13.848Z,48.70
2019-05-02T12:22:44.077Z,49.00
2019-05-02T12:25:15.072Z,48.20
2019-05-02T12:27:45.011Z,48.00
2019-05-02T12:30:15.195Z,47.40
2019-05-02T12:32:45.383Z,47.70
2019-05-02T12:35:15.527Z,46.90
2019-05-02T12:37:47.089Z,47.50
2019-05-02T12:40:17.531Z,48.40
2019-05-02T12:42:47.835Z,46.20
2019-05-02T12:45:17.940Z,45.30
2019-05-02T12:47:48.055Z,44.10
2019-05-02T12:50:18.159Z,45.40
2019-05-02T12:52:48.211Z,45.70
2019-05-02T12:55:18.291Z,43.90
2019-05-02T12:57:48.339Z,46.60
2019-05-02T13:00:19.212Z,47.20
2019-05-02T13:02:52.538Z,46.00
2019-05-02T13:05:22.676Z,44.60
2019-05-02T13:07:55.308Z,44.50
2019-05-02T13:10:28.961Z,43.60
2019-05-02T13:12:59.035Z,42.70
2019-05-02T13:15:29.318Z,42.30
2019-05-02T13:17:59.395Z,42.50
2019-05-02T13:20:34.743Z,44.40
2019-05-02T13:23:22.667Z,44.10
2019-05-02T13:25:52.775Z,43.90
2019-05-02T13:28:25.623Z,45.00
2019-05-02T13:31:02.327Z,44.00
2019-05-02T13:33:47.194Z,45.30
2019-05-02T13:36:39.007Z,45.20
2019-05-02T13:39:13.227Z,45.90
2019-05-02T13:41:43.351Z,45.10
2019-05-02T13:44:15.384Z,44.20
2019-05-02T13:46:46.240Z,44.80
2019-05-02T13:49:16.306Z,44.00
2019-05-02T13:51:46.452Z,46.10
2019-05-02T13:54:16.602Z,43.70
2019-05-02T13:56:53.108Z,43.10
2019-05-02T13:59:23.200Z,42.10
2019-05-02T14:01:54.086Z,41.50
2019-05-02T14:04:24.187Z,40.80
2019-05-02T14:06:54.264Z,40.50
2019-05-02T14:09:35.116Z,41.70
2019-05-02T14:12:07.035Z,43.30
2019-05-02T14:14:37.106Z,38.20
2019-05-02T14:17:07.204Z,37.70
2019-05-02T14:19:38.852Z,37.70
2019-05-02T14:22:08.959Z,36.00
2019-05-02T14:24:38.975Z,36.00
2019-05-02T14:27:13.018Z,36.70
2019-05-02T14:29:42.399Z,37.50
2019-05-02T14:32:21.359Z,37.90
2019-05-02T14:34:48.221Z,36.30
2019-05-02T14:37:18.332Z,33.80
2019-05-02T14:39:49.975Z,33.90
2019-05-02T14:42:22.067Z,35.10
2019-05-02T14:45:05.696Z,36.60
2019-05-02T14:47:23.552Z,37.60
2019-05-02T14:49:56.692Z,36.60
2019-05-02T14:52:25.443Z,36.90
2019-05-02T14:54:55.791Z,36.50
2019-05-02T14:57:27.284Z,36.90
2019-05-02T14:59:59.513Z,36.30
2019-05-02T15:02:44.949Z,34.70
2019-05-02T15:05:19.159Z,34.10
2019-05-02T15:07:47.686Z,32.70
2019-05-02T15:10:17.786Z,32.80
2019-05-02T15:12:53.513Z,34.50
2019-05-02T15:15:19.508Z,36.10
2019-05-02T15:17:49.515Z,36.80
2019-05-02T15:20:19.655Z,37.40
2019-05-02T15:22:49.646Z,37.30
2019-05-02T15:25:21.666Z,38.50
2019-05-02T15:27:58.517Z,38.90
2019-05-02T15:30:24.121Z,37.80
2019-05-02T15:32:58.568Z,37.90
2019-05-02T15:35:31.799Z,38.50
2019-05-02T15:38:06.535Z,37.10
2019-05-02T15:40:43.479Z,36.80
2019-05-02T15:43:09.705Z,35.50
2019-05-02T15:45:42.006Z,36.60
2019-05-02T15:48:15.472Z,37.50
2019-05-02T15:50:51.587Z,37.50
2019-05-02T15:53:14.794Z,39.90
2019-05-02T15:55:44.799Z,39.40
2019-05-02T15:58:26.082Z,41.50
2019-05-02T16:00:56.509Z,43.80
2019-05-02T16:03:27.723Z,43.10
2019-05-02T16:05:57.898Z,40.30
2019-05-02T16:08:29.540Z,41.30
2019-05-02T16:10:59.637Z,41.30
2019-05-02T16:13:31.711Z,43.90
2019-05-02T16:16:04.330Z,43.30
2019-05-02T16:18:36.074Z,41.90
2019-05-02T16:21:07.911Z,44.30
2019-05-02T16:23:38.169Z,42.80
2019-05-02T16:26:08.948Z,43.30
2019-05-02T16:28:44.123Z,44.50
2019-05-02T16:31:12.589Z,44.60
2019-05-02T16:33:42.696Z,44.10
2019-05-02T16:36:13.788Z,45.10
2019-05-02T16:38:43.963Z,46.60
2019-05-02T16:41:14.075Z,46.70
2019-05-02T16:43:44.204Z,46.90
2019-05-02T16:46:15.403Z,48.00
2019-05-02T16:48:44.747Z,48.10
2019-05-02T16:51:29.907Z,47.90
2019-05-02T16:53:46.375Z,48.00
2019-05-02T16:56:16.367Z,47.10
2019-05-02T16:58:47.245Z,45.40
2019-05-02T17:01:26.553Z,44.30
2019-05-02T17:03:49.140Z,42.40
2019-05-02T17:06:22.372Z,41.00
2019-05-02T17:09:08.404Z,40.40
2019-05-02T17:11:45.908Z,41.60
2019-05-02T17:14:15.898Z,42.40
2019-05-02T17:16:47.161Z,44.30
2019-05-02T17:19:19.095Z,45.50
2019-05-02T17:21:53.813Z,47.40
2019-05-02T17:24:24.603Z,48.40
2019-05-02T17:26:52.351Z,49.50
2019-05-02T17:29:22.800Z,50.50
2019-05-02T17:31:55.519Z,50.90
2019-05-02T17:34:29.947Z,51.30
2019-05-02T17:37:11.150Z,49.50
2019-05-02T17:39:42.692Z,49.80
2019-05-02T17:42:25.787Z,49.90
2019-05-02T17:44:59.253Z,48.80
2019-05-02T17:47:26.433Z,50.20
2019-05-02T17:49:58.947Z,51.20
2019-05-02T17:52:33.362Z,52.60
2019-05-02T17:55:04.568Z,53.20
2019-05-02T17:57:34.921Z,51.90
2019-05-02T18:00:13.071Z,52.60
2019-05-02T18:02:42.385Z,52.00
2019-05-02T18:05:12.444Z,52.50
2019-05-02T18:07:42.507Z,52.60
2019-05-02T18:10:19.279Z,52.70
2019-05-02T18:12:47.738Z,52.90
2019-05-02T18:15:16.072Z,53.30
2019-05-02T18:17:46.075Z,53.30
2019-05-02T18:20:17.087Z,53.90
2019-05-02T18:22:48.958Z,54.00
2019-05-02T18:25:23.622Z,54.50
2019-05-02T18:27:51.795Z,54.70
2019-05-02T18:30:25.548Z,54.70
2019-05-02T18:32:57.819Z,54.80
2019-05-02T18:35:25.116Z,55.00
2019-05-02T18:37:55.266Z,54.40
2019-05-02T18:40:29.361Z,54.60
2019-05-02T18:43:02.147Z,53.90
2019-05-02T18:45:29.276Z,53.80
2019-05-02T18:48:02.468Z,53.50
2019-05-02T18:50:37.030Z,53.60
2019-05-02T18:53:08.169Z,53.40
2019-05-02T18:55:38.577Z,53.80
2019-05-02T18:58:09.485Z,54.30
2019-05-02T19:00:41.938Z,53.80
2019-05-02T19:03:13.237Z,54.40
2019-05-02T19:05:43.551Z,54.30
2019-05-02T19:08:13.759Z,54.80
2019-05-02T19:11:01.373Z,54.60
2019-05-02T19:13:15.492Z,54.70
2019-05-02T19:15:48.882Z,54.50
2019-05-02T19:18:18.305Z,55.00
2019-05-02T19:20:57.542Z,55.00
2019-05-02T19:23:26.709Z,54.20
2019-05-02T19:25:56.775Z,54.70
2019-05-02T19:28:34.660Z,53.90
2019-05-02T19:31:06.754Z,53.70
2019-05-02T19:33:37.581Z,54.40
2019-05-02T19:36:07.219Z,54.80
2019-05-02T19:38:37.338Z,54.20
2019-05-02T19:41:09.354Z,54.50
2019-05-02T19:43:40.506Z,54.40
2019-05-02T19:46:12.147Z,55.40
2019-05-02T19:48:43.016Z,55.90
2019-05-02T19:51:18.434Z,56.20
2019-05-02T19:53:44.817Z,56.40
2019-05-02T19:56:14.916Z,56.60
2019-05-02T19:58:46.798Z,56.90
2019-05-02T20:01:17.523Z,56.90
2019-05-02T20:03:48.442Z,56.90
2019-05-02T20:06:18.543Z,56.60
2019-05-02T20:08:48.651Z,56.80
2019-05-02T20:11:18.743Z,57.20
2019-05-02T20:13:48.899Z,57.20
2019-05-02T20:16:26.013Z,57.60
2019-05-02T20:18:56.103Z,57.50
2019-05-02T20:21:32.545Z,57.00
2019-05-02T20:24:04.311Z,57.20
2019-05-02T20:26:34.502Z,56.30
2019-05-02T20:29:04.613Z,57.30
2019-05-02T20:31:34.630Z,57.60
2019-05-02T20:34:05.122Z,57.60
2019-05-02T20:36:35.265Z,57.60
2019-05-02T20:39:07.969Z,57.80
2019-05-02T20:41:38.290Z,57.70
2019-05-02T20:44:08.331Z,58.20
2019-05-02T20:46:38.372Z,58.20
2019-05-02T20:49:09.486Z,57.30
2019-05-02T20:51:39.567Z,57.00
2019-05-02T20:54:12.380Z,56.20
2019-05-02T20:56:42.757Z,56.40
2019-05-02T20:59:12.941Z,55.80
2019-05-02T21:01:43.060Z,56.10
2019-05-02T21:04:13.128Z,55.70
2019-05-02T21:06:56.647Z,55.90
2019-05-02T21:09:33.909Z,55.60
2019-05-02T21:12:05.915Z,54.80
2019-05-02T21:14:36.174Z,54.70
2019-05-02T21:17:06.378Z,54.80
2019-05-02T21:19:36.439Z,55.40
2019-05-02T21:22:09.550Z,55.70
2019-05-02T21:24:39.723Z,56.00
2019-05-02T21:27:09.842Z,55.90
2019-05-02T21:29:40.002Z,55.40
2019-05-02T21:32:11.933Z,54.90
2019-05-02T21:34:42.463Z,54.80
2019-05-02T21:37:12.823Z,54.80
2019-05-02T21:39:42.895Z,54.60
2019-05-02T21:42:12.994Z,54.40
2019-05-02T21:44:42.996Z,54.20
2019-05-02T21:47:13.130Z,54.20
2019-05-02T21:49:52.372Z,54.90
2019-05-02T21:52:39.739Z,55.20
2019-05-02T21:55:14.190Z,54.60
2019-05-02T21:57:44.195Z,54.50
2019-05-02T22:00:22.240Z,55.50
2019-05-02T22:02:53.832Z,55.70
2019-05-02T22:05:23.931Z,54.90
2019-05-02T22:07:54.003Z,55.20
2019-05-02T22:10:24.111Z,55.80
2019-05-02T22:12:54.119Z,55.40
2019-05-02T22:15:24.247Z,55.70
2019-05-02T22:17:54.184Z,56.50
2019-05-02T22:20:24.211Z,56.30
2019-05-02T22:22:54.307Z,56.40
2019-05-02T22:25:24.455Z,56.60
2019-05-02T22:27:54.487Z,56.60
2019-05-02T22:30:24.556Z,57.10
2019-05-02T22:32:54.670Z,57.60
2019-05-02T22:35:24.667Z,57.50
2019-05-02T22:38:02.395Z,57.90
2019-05-02T22:40:32.454Z,57.80
2019-05-02T22:43:04.612Z,58.20
2019-05-02T22:45:34.144Z,58.10
2019-05-02T22:48:04.523Z,58.20
2019-05-02T22:50:34.541Z,58.80
2019-05-02T22:53:04.951Z,58.70
2019-05-02T22:55:35.036Z,58.80
2019-05-02T22:58:05.150Z,58.90
2019-05-02T23:00:35.223Z,58.70
2019-05-02T23:03:05.408Z,59.30
2019-05-02T23:05:35.625Z,59.50
2019-05-02T23:08:05.902Z,59.30
2019-05-02T23:10:36.154Z,59.40
2019-05-02T23:13:06.437Z,59.60
2019-05-02T23:15:36.566Z,59.70
2019-05-02T23:18:06.651Z,59.60
2019-05-02T23:20:36.846Z,60.10
2019-05-02T23:23:06.963Z,60.20
2019-05-02T23:25:39.136Z,60.50
2019-05-02T23:28:13.721Z,60.60
2019-05-02T23:30:43.767Z,61.30
2019-05-02T23:33:13.884Z,61.20
2019-05-02T23:35:44.071Z,61.00
2019-05-02T23:38:14.304Z,62.30
2019-05-02T23:40:44.463Z,62.20
2019-05-02T23:43:14.583Z,63.10
2019-05-02T23:45:44.588Z,63.10
2019-05-02T23:48:14.657Z,63.20
2019-05-02T23:50:44.691Z,63.40
2019-05-02T23:53:14.743Z,63.20
2019-05-02T23:55:44.780Z,63.80
2019-05-02T23:58:14.779Z,65.10
